sensor_id;sensor_type;location;lat;lon;timestamp;temperature;humidity
1405;DHT22;697;51.114;6.542;2023-12-20T00:01:57;8.90;99.90
1405;DHT22;697;51.114;6.542;2023-12-20T00:04:24;8.90;99.90
1405;DHT22;697;51.114;6.542;2023-12-20T00:06:51;8.90;99.90
1405;DHT22;697;51.114;6.542;2023-12-20T00:09:19;8.90;99.90
1405;DHT22;697;51.114;6.542;2023-12-20T00:11:46;8.90;99.90
1405;DHT22;697;51.114;6.542;2023-12-20T00:14:12;8.90;99.90
1405;DHT22;697;51.114;6.542;2023-12-20T00:16:39;8.90;99.90
1405;DHT22;697;51.114;6.542;2023-12-20T00:19:06;8.90;99.90
1405;DHT22;697;51.114;6.542;2023-12-20T00:21:33;8.90;99.90
1405;DHT22;697;51.114;6.542;2023-12-20T00:23:59;8.80;99.90
1405;DHT22;697;51.114;6.542;2023-12-20T00:26:28;8.80;99.90
1405;DHT22;697;51.114;6.542;2023-12-20T00:28:54;8.90;99.90
1405;DHT22;697;51.114;6.542;2023-12-20T00:31:21;8.80;99.90
1405;DHT22;697;51.114;6.542;2023-12-20T00:33:48;8.90;99.90
1405;DHT22;697;51.114;6.542;2023-12-20T00:36:15;8.90;99.90
1405;DHT22;697;51.114;6.542;2023-12-20T00:38:41;8.90;99.90
1405;DHT22;697;51.114;6.542;2023-12-20T00:41:08;8.90;99.90
1405;DHT22;697;51.114;6.542;2023-12-20T00:43:36;8.90;99.90
1405;DHT22;697;51.114;6.542;2023-12-20T00:46:03;8.90;99.90
1405;DHT22;697;51.114;6.542;2023-12-20T00:48:30;8.80;99.90
1405;DHT22;697;51.114;6.542;2023-12-20T00:50:57;8.80;99.90
1405;DHT22;697;51.114;6.542;2023-12-20T00:53:24;8.80;99.90
1405;DHT22;697;51.114;6.542;2023-12-20T00:55:50;8.70;99.90
1405;DHT22;697;51.114;6.542;2023-12-20T00:58:17;8.70;99.90
1405;DHT22;697;51.114;6.542;2023-12-20T01:00:45;8.60;99.90
1405;DHT22;697;51.114;6.542;2023-12-20T01:03:12;8.70;99.90
1405;DHT22;697;51.114;6.542;2023-12-20T01:05:39;8.60;99.90
1405;DHT22;697;51.114;6.542;2023-12-20T01:08:06;8.60;99.90
1405;DHT22;697;51.114;6.542;2023-12-20T01:10:33;8.60;99.90
1405;DHT22;697;51.114;6.542;2023-12-20T01:13:01;8.60;99.90
1405;DHT22;697;51.114;6.542;2023-12-20T01:15:27;8.60;99.90
1405;DHT22;697;51.114;6.542;2023-12-20T01:17:55;8.50;99.90
1405;DHT22;697;51.114;6.542;2023-12-20T01:20:24;8.40;99.90
1405;DHT22;697;51.114;6.542;2023-12-20T01:22:51;8.40;99.90
1405;DHT22;697;51.114;6.542;2023-12-20T01:25:18;8.30;99.90
1405;DHT22;697;51.114;6.542;2023-12-20T01:27:44;8.30;99.90
1405;DHT22;697;51.114;6.542;2023-12-20T01:30:12;8.20;99.90
1405;DHT22;697;51.114;6.542;2023-12-20T01:32:39;8.20;99.90
1405;DHT22;697;51.114;6.542;2023-12-20T01:35:08;8.00;99.90
1405;DHT22;697;51.114;6.542;2023-12-20T01:37:34;8.00;99.90
1405;DHT22;697;51.114;6.542;2023-12-20T01:40:01;7.90;99.90
1405;DHT22;697;51.114;6.542;2023-12-20T01:42:28;7.80;99.90
1405;DHT22;697;51.114;6.542;2023-12-20T01:44:55;7.80;99.90
1405;DHT22;697;51.114;6.542;2023-12-20T01:47:22;7.80;99.90
1405;DHT22;697;51.114;6.542;2023-12-20T01:49:49;7.80;99.90
1405;DHT22;697;51.114;6.542;2023-12-20T01:52:18;7.80;99.90
1405;DHT22;697;51.114;6.542;2023-12-20T01:54:47;7.70;99.90
1405;DHT22;697;51.114;6.542;2023-12-20T01:57:14;7.70;99.90
1405;DHT22;697;51.114;6.542;2023-12-20T01:59:41;7.80;99.90
1405;DHT22;697;51.114;6.542;2023-12-20T02:02:08;7.80;99.90
1405;DHT22;697;51.114;6.542;2023-12-20T02:04:38;7.80;99.90
1405;DHT22;697;51.114;6.542;2023-12-20T02:07:05;7.70;99.90
1405;DHT22;697;51.114;6.542;2023-12-20T02:09:35;7.70;99.90
1405;DHT22;697;51.114;6.542;2023-12-20T02:12:03;7.70;99.90
1405;DHT22;697;51.114;6.542;2023-12-20T02:14:30;7.70;99.90
1405;DHT22;697;51.114;6.542;2023-12-20T02:16:57;7.70;99.90
1405;DHT22;697;51.114;6.542;2023-12-20T02:19:23;7.60;99.90
1405;DHT22;697;51.114;6.542;2023-12-20T02:22:05;7.60;99.90
1405;DHT22;697;51.114;6.542;2023-12-20T02:24:32;7.60;99.90
1405;DHT22;697;51.114;6.542;2023-12-20T02:26:58;7.60;99.90
1405;DHT22;697;51.114;6.542;2023-12-20T02:29:25;7.60;99.90
1405;DHT22;697;51.114;6.542;2023-12-20T02:31:53;7.60;99.90
1405;DHT22;697;51.114;6.542;2023-12-20T02:34:19;7.60;99.90
1405;DHT22;697;51.114;6.542;2023-12-20T02:36:46;7.60;99.90
1405;DHT22;697;51.114;6.542;2023-12-20T02:39:14;7.60;99.90
1405;DHT22;697;51.114;6.542;2023-12-20T02:41:41;7.60;99.90
1405;DHT22;697;51.114;6.542;2023-12-20T02:44:08;7.60;99.90
1405;DHT22;697;51.114;6.542;2023-12-20T02:46:35;7.60;99.90
1405;DHT22;697;51.114;6.542;2023-12-20T02:49:01;7.60;99.90
1405;DHT22;697;51.114;6.542;2023-12-20T02:51:28;7.50;99.90
1405;DHT22;697;51.114;6.542;2023-12-20T02:53:55;7.60;99.90
1405;DHT22;697;51.114;6.542;2023-12-20T02:56:23;7.60;99.90
1405;DHT22;697;51.114;6.542;2023-12-20T02:58:49;7.60;99.90
1405;DHT22;697;51.114;6.542;2023-12-20T03:01:16;7.60;99.90
1405;DHT22;697;51.114;6.542;2023-12-20T03:03:43;7.50;99.90
1405;DHT22;697;51.114;6.542;2023-12-20T03:06:10;7.50;99.90
1405;DHT22;697;51.114;6.542;2023-12-20T03:08:36;7.50;99.90
1405;DHT22;697;51.114;6.542;2023-12-20T03:11:04;7.50;99.90
1405;DHT22;697;51.114;6.542;2023-12-20T03:13:32;7.40;99.90
1405;DHT22;697;51.114;6.542;2023-12-20T03:15:59;7.40;99.90
1405;DHT22;697;51.114;6.542;2023-12-20T03:18:26;7.30;99.90
1405;DHT22;697;51.114;6.542;2023-12-20T03:20:54;7.30;99.90
1405;DHT22;697;51.114;6.542;2023-12-20T03:23:20;7.30;99.90
1405;DHT22;697;51.114;6.542;2023-12-20T03:25:47;7.30;99.90
1405;DHT22;697;51.114;6.542;2023-12-20T03:28:14;7.20;99.90
1405;DHT22;697;51.114;6.542;2023-12-20T03:30:43;7.20;99.90
1405;DHT22;697;51.114;6.542;2023-12-20T03:33:10;7.20;99.90
1405;DHT22;697;51.114;6.542;2023-12-20T03:35:36;7.30;99.90
1405;DHT22;697;51.114;6.542;2023-12-20T03:38:03;7.20;99.90
1405;DHT22;697;51.114;6.542;2023-12-20T03:40:30;7.20;99.90
1405;DHT22;697;51.114;6.542;2023-12-20T03:42:57;7.30;99.90
1405;DHT22;697;51.114;6.542;2023-12-20T03:45:23;7.20;99.90
1405;DHT22;697;51.114;6.542;2023-12-20T03:47:51;7.10;99.90
1405;DHT22;697;51.114;6.542;2023-12-20T03:50:20;7.10;99.90
1405;DHT22;697;51.114;6.542;2023-12-20T03:52:47;7.10;99.90
1405;DHT22;697;51.114;6.542;2023-12-20T03:55:15;7.10;99.90
1405;DHT22;697;51.114;6.542;2023-12-20T03:57:42;7.20;99.90
1405;DHT22;697;51.114;6.542;2023-12-20T04:00:10;7.10;99.90
1405;DHT22;697;51.114;6.542;2023-12-20T04:02:37;7.10;99.90
1405;DHT22;697;51.114;6.542;2023-12-20T04:05:05;7.10;99.90
1405;DHT22;697;51.114;6.542;2023-12-20T04:07:33;7.10;99.90
1405;DHT22;697;51.114;6.542;2023-12-20T04:09:59;7.10;99.90
1405;DHT22;697;51.114;6.542;2023-12-20T04:12:27;7.10;99.90
1405;DHT22;697;51.114;6.542;2023-12-20T04:14:54;7.10;99.90
1405;DHT22;697;51.114;6.542;2023-12-20T04:17:21;7.10;99.90
1405;DHT22;697;51.114;6.542;2023-12-20T04:19:48;7.10;99.90
1405;DHT22;697;51.114;6.542;2023-12-20T04:22:17;7.10;99.90
1405;DHT22;697;51.114;6.542;2023-12-20T04:24:44;7.10;99.90
1405;DHT22;697;51.114;6.542;2023-12-20T04:27:11;7.10;99.90
1405;DHT22;697;51.114;6.542;2023-12-20T04:29:37;7.10;99.90
1405;DHT22;697;51.114;6.542;2023-12-20T04:32:05;7.10;99.90
1405;DHT22;697;51.114;6.542;2023-12-20T04:34:31;7.10;99.90
1405;DHT22;697;51.114;6.542;2023-12-20T04:36:58;7.00;99.90
1405;DHT22;697;51.114;6.542;2023-12-20T04:39:28;7.00;99.90
1405;DHT22;697;51.114;6.542;2023-12-20T04:41:55;7.00;99.90
1405;DHT22;697;51.114;6.542;2023-12-20T04:44:22;7.00;99.90
1405;DHT22;697;51.114;6.542;2023-12-20T04:46:49;6.90;99.90
1405;DHT22;697;51.114;6.542;2023-12-20T04:49:15;6.90;99.90
1405;DHT22;697;51.114;6.542;2023-12-20T04:51:42;6.90;99.90
1405;DHT22;697;51.114;6.542;2023-12-20T04:54:09;6.90;99.90
1405;DHT22;697;51.114;6.542;2023-12-20T04:56:37;6.80;99.90
1405;DHT22;697;51.114;6.542;2023-12-20T04:59:04;6.90;99.90
1405;DHT22;697;51.114;6.542;2023-12-20T05:01:31;6.90;99.90
1405;DHT22;697;51.114;6.542;2023-12-20T05:03:58;6.90;99.90
1405;DHT22;697;51.114;6.542;2023-12-20T05:06:24;6.90;99.90
1405;DHT22;697;51.114;6.542;2023-12-20T05:08:51;6.90;99.90
1405;DHT22;697;51.114;6.542;2023-12-20T05:11:18;6.80;99.90
1405;DHT22;697;51.114;6.542;2023-12-20T05:13:46;6.80;99.90
1405;DHT22;697;51.114;6.542;2023-12-20T05:16:13;6.80;99.90
1405;DHT22;697;51.114;6.542;2023-12-20T05:18:43;6.90;99.90
1405;DHT22;697;51.114;6.542;2023-12-20T05:21:09;6.90;99.90
1405;DHT22;697;51.114;6.542;2023-12-20T05:23:36;6.90;99.90
1405;DHT22;697;51.114;6.542;2023-12-20T05:26:03;6.90;99.90
1405;DHT22;697;51.114;6.542;2023-12-20T05:28:30;6.90;99.90
1405;DHT22;697;51.114;6.542;2023-12-20T05:30:58;7.00;99.90
1405;DHT22;697;51.114;6.542;2023-12-20T05:33:25;7.00;99.90
1405;DHT22;697;51.114;6.542;2023-12-20T05:35:52;7.10;99.90
1405;DHT22;697;51.114;6.542;2023-12-20T05:38:18;7.00;99.90
1405;DHT22;697;51.114;6.542;2023-12-20T05:40:46;7.10;99.90
1405;DHT22;697;51.114;6.542;2023-12-20T05:43:12;7.10;99.90
1405;DHT22;697;51.114;6.542;2023-12-20T05:45:39;7.10;99.90
1405;DHT22;697;51.114;6.542;2023-12-20T05:48:08;7.10;99.90
1405;DHT22;697;51.114;6.542;2023-12-20T05:50:35;7.10;99.90
1405;DHT22;697;51.114;6.542;2023-12-20T05:53:02;7.10;99.90
1405;DHT22;697;51.114;6.542;2023-12-20T05:55:29;7.10;99.90
1405;DHT22;697;51.114;6.542;2023-12-20T05:57:55;7.10;99.90
1405;DHT22;697;51.114;6.542;2023-12-20T06:00:23;7.10;99.90
1405;DHT22;697;51.114;6.542;2023-12-20T06:02:50;7.10;99.90
1405;DHT22;697;51.114;6.542;2023-12-20T06:05:18;7.10;99.90
1405;DHT22;697;51.114;6.542;2023-12-20T06:07:45;7.20;99.90
1405;DHT22;697;51.114;6.542;2023-12-20T06:10:13;7.20;99.90
1405;DHT22;697;51.114;6.542;2023-12-20T06:12:40;7.20;99.90
1405;DHT22;697;51.114;6.542;2023-12-20T06:15:07;7.20;99.90
1405;DHT22;697;51.114;6.542;2023-12-20T06:17:34;7.20;99.90
1405;DHT22;697;51.114;6.542;2023-12-20T06:20:02;7.20;99.90
1405;DHT22;697;51.114;6.542;2023-12-20T06:22:34;7.20;99.90
1405;DHT22;697;51.114;6.542;2023-12-20T06:25:01;7.20;99.90
1405;DHT22;697;51.114;6.542;2023-12-20T06:27:28;7.20;99.90
1405;DHT22;697;51.114;6.542;2023-12-20T06:29:56;7.30;99.90
1405;DHT22;697;51.114;6.542;2023-12-20T06:32:23;7.20;99.90
1405;DHT22;697;51.114;6.542;2023-12-20T06:34:49;7.30;99.90
1405;DHT22;697;51.114;6.542;2023-12-20T06:37:16;7.20;99.90
1405;DHT22;697;51.114;6.542;2023-12-20T06:39:44;7.20;99.90
1405;DHT22;697;51.114;6.542;2023-12-20T06:42:12;7.30;99.90
1405;DHT22;697;51.114;6.542;2023-12-20T06:44:38;7.30;99.90
1405;DHT22;697;51.114;6.542;2023-12-20T06:47:05;7.30;99.90
1405;DHT22;697;51.114;6.542;2023-12-20T06:49:32;7.30;99.90
1405;DHT22;697;51.114;6.542;2023-12-20T06:51:59;7.30;99.90
1405;DHT22;697;51.114;6.542;2023-12-20T06:54:26;7.30;99.90
1405;DHT22;697;51.114;6.542;2023-12-20T06:56:54;7.20;99.90
1405;DHT22;697;51.114;6.542;2023-12-20T06:59:21;7.30;99.90
1405;DHT22;697;51.114;6.542;2023-12-20T07:01:48;7.40;99.90
1405;DHT22;697;51.114;6.542;2023-12-20T07:04:15;7.30;99.90
1405;DHT22;697;51.114;6.542;2023-12-20T07:06:45;7.30;99.90
1405;DHT22;697;51.114;6.542;2023-12-20T07:09:13;7.30;99.90
1405;DHT22;697;51.114;6.542;2023-12-20T07:11:40;7.30;99.90
1405;DHT22;697;51.114;6.542;2023-12-20T07:14:08;7.40;99.90
1405;DHT22;697;51.114;6.542;2023-12-20T07:16:35;7.40;99.90
1405;DHT22;697;51.114;6.542;2023-12-20T07:19:02;7.40;99.90
1405;DHT22;697;51.114;6.542;2023-12-20T07:21:29;7.30;99.90
1405;DHT22;697;51.114;6.542;2023-12-20T07:23:56;7.30;99.90
1405;DHT22;697;51.114;6.542;2023-12-20T07:26:23;7.30;99.90
1405;DHT22;697;51.114;6.542;2023-12-20T07:28:49;7.40;99.90
1405;DHT22;697;51.114;6.542;2023-12-20T07:31:18;7.30;99.90
1405;DHT22;697;51.114;6.542;2023-12-20T07:33:44;7.30;99.90
1405;DHT22;697;51.114;6.542;2023-12-20T07:36:12;7.30;99.90
1405;DHT22;697;51.114;6.542;2023-12-20T07:38:38;7.30;99.90
1405;DHT22;697;51.114;6.542;2023-12-20T07:41:09;7.40;99.90
1405;DHT22;697;51.114;6.542;2023-12-20T07:43:36;7.30;99.90
1405;DHT22;697;51.114;6.542;2023-12-20T07:46:06;7.30;99.90
1405;DHT22;697;51.114;6.542;2023-12-20T07:48:34;7.30;99.90
1405;DHT22;697;51.114;6.542;2023-12-20T07:51:02;7.20;99.90
1405;DHT22;697;51.114;6.542;2023-12-20T07:53:29;7.20;99.90
1405;DHT22;697;51.114;6.542;2023-12-20T07:55:55;7.20;99.90
1405;DHT22;697;51.114;6.542;2023-12-20T07:58:22;7.30;99.90
1405;DHT22;697;51.114;6.542;2023-12-20T08:00:49;7.30;99.90
1405;DHT22;697;51.114;6.542;2023-12-20T08:03:15;7.20;99.90
1405;DHT22;697;51.114;6.542;2023-12-20T08:05:44;7.20;99.90
1405;DHT22;697;51.114;6.542;2023-12-20T08:08:10;7.20;99.90
1405;DHT22;697;51.114;6.542;2023-12-20T08:10:37;7.20;99.90
1405;DHT22;697;51.114;6.542;2023-12-20T08:13:04;7.20;99.90
1405;DHT22;697;51.114;6.542;2023-12-20T08:15:31;7.20;99.90
1405;DHT22;697;51.114;6.542;2023-12-20T08:17:58;7.20;99.90
1405;DHT22;697;51.114;6.542;2023-12-20T08:20:24;7.20;99.90
1405;DHT22;697;51.114;6.542;2023-12-20T08:22:52;7.20;99.90
1405;DHT22;697;51.114;6.542;2023-12-20T08:25:19;7.20;99.90
1405;DHT22;697;51.114;6.542;2023-12-20T08:27:48;7.20;99.90
1405;DHT22;697;51.114;6.542;2023-12-20T08:30:15;7.20;99.90
1405;DHT22;697;51.114;6.542;2023-12-20T08:32:43;7.20;99.90
1405;DHT22;697;51.114;6.542;2023-12-20T08:35:09;7.20;99.90
1405;DHT22;697;51.114;6.542;2023-12-20T08:37:36;7.20;99.90
1405;DHT22;697;51.114;6.542;2023-12-20T08:40:06;7.20;99.90
1405;DHT22;697;51.114;6.542;2023-12-20T08:42:32;7.20;99.90
1405;DHT22;697;51.114;6.542;2023-12-20T08:44:59;7.20;99.90
1405;DHT22;697;51.114;6.542;2023-12-20T08:47:26;7.30;99.90
1405;DHT22;697;51.114;6.542;2023-12-20T08:49:53;7.30;99.90
1405;DHT22;697;51.114;6.542;2023-12-20T08:52:22;7.30;99.90
1405;DHT22;697;51.114;6.542;2023-12-20T08:54:48;7.30;99.90
1405;DHT22;697;51.114;6.542;2023-12-20T08:57:19;7.30;99.90
1405;DHT22;697;51.114;6.542;2023-12-20T08:59:46;7.40;99.90
1405;DHT22;697;51.114;6.542;2023-12-20T09:02:13;7.40;99.90
1405;DHT22;697;51.114;6.542;2023-12-20T09:04:40;7.40;99.90
1405;DHT22;697;51.114;6.542;2023-12-20T09:07:14;7.40;99.90
1405;DHT22;697;51.114;6.542;2023-12-20T09:09:46;7.40;99.90
1405;DHT22;697;51.114;6.542;2023-12-20T09:12:13;7.50;99.90
1405;DHT22;697;51.114;6.542;2023-12-20T09:14:41;7.50;99.90
1405;DHT22;697;51.114;6.542;2023-12-20T09:17:08;7.60;99.90
1405;DHT22;697;51.114;6.542;2023-12-20T09:19:37;7.50;99.90
1405;DHT22;697;51.114;6.542;2023-12-20T09:22:04;7.60;99.90
1405;DHT22;697;51.114;6.542;2023-12-20T09:24:31;7.60;99.90
1405;DHT22;697;51.114;6.542;2023-12-20T09:26:58;7.60;99.90
1405;DHT22;697;51.114;6.542;2023-12-20T09:29:25;7.60;99.90
1405;DHT22;697;51.114;6.542;2023-12-20T09:31:53;7.60;99.90
1405;DHT22;697;51.114;6.542;2023-12-20T09:34:19;7.50;99.90
1405;DHT22;697;51.114;6.542;2023-12-20T09:36:46;7.60;99.90
1405;DHT22;697;51.114;6.542;2023-12-20T09:39:13;7.50;99.90
1405;DHT22;697;51.114;6.542;2023-12-20T09:41:43;7.60;99.90
1405;DHT22;697;51.114;6.542;2023-12-20T09:44:14;7.60;99.90
1405;DHT22;697;51.114;6.542;2023-12-20T09:46:44;7.50;99.90
1405;DHT22;697;51.114;6.542;2023-12-20T09:49:13;7.60;99.90
1405;DHT22;697;51.114;6.542;2023-12-20T09:51:40;7.70;99.90
1405;DHT22;697;51.114;6.542;2023-12-20T09:54:08;7.70;99.90
1405;DHT22;697;51.114;6.542;2023-12-20T09:56:37;7.70;99.90
1405;DHT22;697;51.114;6.542;2023-12-20T09:59:04;7.70;99.90
1405;DHT22;697;51.114;6.542;2023-12-20T10:01:31;7.80;99.90
1405;DHT22;697;51.114;6.542;2023-12-20T10:04:00;7.80;99.90
1405;DHT22;697;51.114;6.542;2023-12-20T10:06:29;7.70;99.90
1405;DHT22;697;51.114;6.542;2023-12-20T10:08:56;7.80;99.90
1405;DHT22;697;51.114;6.542;2023-12-20T10:11:22;7.90;99.90
1405;DHT22;697;51.114;6.542;2023-12-20T10:13:50;7.90;99.90
1405;DHT22;697;51.114;6.542;2023-12-20T10:16:16;7.90;99.90
1405;DHT22;697;51.114;6.542;2023-12-20T10:18:43;7.80;99.90
1405;DHT22;697;51.114;6.542;2023-12-20T10:21:12;7.90;99.90
1405;DHT22;697;51.114;6.542;2023-12-20T10:23:40;8.00;99.90
1405;DHT22;697;51.114;6.542;2023-12-20T10:26:07;8.00;99.90
1405;DHT22;697;51.114;6.542;2023-12-20T10:28:35;8.00;99.90
1405;DHT22;697;51.114;6.542;2023-12-20T10:31:03;7.90;99.90
1405;DHT22;697;51.114;6.542;2023-12-20T10:33:30;7.90;99.90
1405;DHT22;697;51.114;6.542;2023-12-20T10:35:58;7.80;99.90
1405;DHT22;697;51.114;6.542;2023-12-20T10:38:24;7.90;99.90
1405;DHT22;697;51.114;6.542;2023-12-20T10:40:56;7.90;99.90
1405;DHT22;697;51.114;6.542;2023-12-20T10:43:24;7.90;99.90
1405;DHT22;697;51.114;6.542;2023-12-20T10:45:51;7.90;99.90
1405;DHT22;697;51.114;6.542;2023-12-20T10:48:18;7.90;99.90
1405;DHT22;697;51.114;6.542;2023-12-20T10:50:47;7.90;99.90
1405;DHT22;697;51.114;6.542;2023-12-20T10:53:14;7.90;99.90
1405;DHT22;697;51.114;6.542;2023-12-20T10:55:43;8.00;99.90
1405;DHT22;697;51.114;6.542;2023-12-20T10:58:13;8.00;99.90
1405;DHT22;697;51.114;6.542;2023-12-20T11:00:41;8.10;99.90
1405;DHT22;697;51.114;6.542;2023-12-20T11:03:11;8.10;99.90
1405;DHT22;697;51.114;6.542;2023-12-20T11:05:43;8.20;99.90
1405;DHT22;697;51.114;6.542;2023-12-20T11:08:17;8.20;99.90
1405;DHT22;697;51.114;6.542;2023-12-20T11:10:51;8.10;99.90
1405;DHT22;697;51.114;6.542;2023-12-20T11:13:28;8.20;99.90
1405;DHT22;697;51.114;6.542;2023-12-20T11:15:56;8.30;99.90
1405;DHT22;697;51.114;6.542;2023-12-20T11:18:28;8.20;99.90
1405;DHT22;697;51.114;6.542;2023-12-20T11:20:56;8.20;99.90
1405;DHT22;697;51.114;6.542;2023-12-20T11:23:26;8.10;99.90
1405;DHT22;697;51.114;6.542;2023-12-20T11:25:55;8.10;99.90
1405;DHT22;697;51.114;6.542;2023-12-20T11:28:26;8.00;99.90
1405;DHT22;697;51.114;6.542;2023-12-20T11:30:54;8.10;99.90
1405;DHT22;697;51.114;6.542;2023-12-20T11:33:22;8.00;99.90
1405;DHT22;697;51.114;6.542;2023-12-20T11:35:49;8.00;99.90
1405;DHT22;697;51.114;6.542;2023-12-20T11:38:16;8.00;99.90
1405;DHT22;697;51.114;6.542;2023-12-20T11:40:43;8.10;99.90
1405;DHT22;697;51.114;6.542;2023-12-20T11:43:10;8.10;99.90
1405;DHT22;697;51.114;6.542;2023-12-20T11:45:49;8.10;99.90
1405;DHT22;697;51.114;6.542;2023-12-20T11:48:17;8.10;99.90
1405;DHT22;697;51.114;6.542;2023-12-20T11:50:45;8.10;99.90
1405;DHT22;697;51.114;6.542;2023-12-20T11:53:12;8.10;99.90
1405;DHT22;697;51.114;6.542;2023-12-20T11:55:38;8.10;99.90
1405;DHT22;697;51.114;6.542;2023-12-20T11:58:05;8.00;99.90
1405;DHT22;697;51.114;6.542;2023-12-20T12:00:32;8.00;99.90
1405;DHT22;697;51.114;6.542;2023-12-20T12:03:00;8.00;99.90
1405;DHT22;697;51.114;6.542;2023-12-20T12:05:30;8.00;99.90
1405;DHT22;697;51.114;6.542;2023-12-20T12:07:58;8.10;99.90
1405;DHT22;697;51.114;6.542;2023-12-20T12:10:24;8.00;99.90
1405;DHT22;697;51.114;6.542;2023-12-20T12:12:51;8.00;99.90
1405;DHT22;697;51.114;6.542;2023-12-20T12:15:20;7.90;99.90
1405;DHT22;697;51.114;6.542;2023-12-20T12:17:53;8.00;99.90
1405;DHT22;697;51.114;6.542;2023-12-20T12:20:22;8.00;99.90
1405;DHT22;697;51.114;6.542;2023-12-20T12:22:57;8.00;99.90
1405;DHT22;697;51.114;6.542;2023-12-20T12:25:24;8.10;99.90
1405;DHT22;697;51.114;6.542;2023-12-20T12:27:51;8.00;99.90
1405;DHT22;697;51.114;6.542;2023-12-20T12:30:18;8.10;99.90
1405;DHT22;697;51.114;6.542;2023-12-20T12:32:45;8.20;99.90
1405;DHT22;697;51.114;6.542;2023-12-20T12:35:12;8.20;99.90
1405;DHT22;697;51.114;6.542;2023-12-20T12:37:40;8.10;99.90
1405;DHT22;697;51.114;6.542;2023-12-20T12:40:10;8.10;99.90
1405;DHT22;697;51.114;6.542;2023-12-20T12:42:37;8.10;99.90
1405;DHT22;697;51.114;6.542;2023-12-20T12:45:05;8.10;99.90
1405;DHT22;697;51.114;6.542;2023-12-20T12:47:33;8.00;99.90
1405;DHT22;697;51.114;6.542;2023-12-20T12:50:00;8.10;99.90
1405;DHT22;697;51.114;6.542;2023-12-20T12:52:27;8.10;99.90
1405;DHT22;697;51.114;6.542;2023-12-20T12:54:55;8.10;99.90
1405;DHT22;697;51.114;6.542;2023-12-20T12:57:25;8.10;99.90
1405;DHT22;697;51.114;6.542;2023-12-20T12:59:52;8.10;99.90
1405;DHT22;697;51.114;6.542;2023-12-20T13:02:18;8.10;99.90
1405;DHT22;697;51.114;6.542;2023-12-20T13:04:45;8.10;99.90
1405;DHT22;697;51.114;6.542;2023-12-20T13:07:12;8.20;99.90
1405;DHT22;697;51.114;6.542;2023-12-20T13:09:39;8.20;99.90
1405;DHT22;697;51.114;6.542;2023-12-20T13:12:08;8.20;99.90
1405;DHT22;697;51.114;6.542;2023-12-20T13:14:35;8.30;99.90
1405;DHT22;697;51.114;6.542;2023-12-20T13:17:03;8.30;99.90
1405;DHT22;697;51.114;6.542;2023-12-20T13:19:30;8.30;99.90
1405;DHT22;697;51.114;6.542;2023-12-20T13:21:57;8.30;99.90
1405;DHT22;697;51.114;6.542;2023-12-20T13:24:24;8.30;99.90
1405;DHT22;697;51.114;6.542;2023-12-20T13:26:51;8.20;99.90
1405;DHT22;697;51.114;6.542;2023-12-20T13:29:19;8.30;99.90
1405;DHT22;697;51.114;6.542;2023-12-20T13:31:46;8.20;99.90
1405;DHT22;697;51.114;6.542;2023-12-20T13:34:12;8.30;99.90
1405;DHT22;697;51.114;6.542;2023-12-20T13:36:38;8.20;99.90
1405;DHT22;697;51.114;6.542;2023-12-20T13:39:05;8.20;99.90
1405;DHT22;697;51.114;6.542;2023-12-20T13:41:33;8.20;99.90
1405;DHT22;697;51.114;6.542;2023-12-20T13:43:59;8.30;99.90
1405;DHT22;697;51.114;6.542;2023-12-20T13:46:30;8.20;99.90
1405;DHT22;697;51.114;6.542;2023-12-20T13:48:56;8.20;99.90
1405;DHT22;697;51.114;6.542;2023-12-20T13:51:23;8.20;99.90
1405;DHT22;697;51.114;6.542;2023-12-20T13:53:50;8.20;99.90
1405;DHT22;697;51.114;6.542;2023-12-20T13:56:17;8.20;99.90
1405;DHT22;697;51.114;6.542;2023-12-20T13:58:45;8.20;99.90
1405;DHT22;697;51.114;6.542;2023-12-20T14:01:13;8.10;99.90
1405;DHT22;697;51.114;6.542;2023-12-20T14:03:41;8.20;99.90
1405;DHT22;697;51.114;6.542;2023-12-20T14:06:07;8.20;99.90
1405;DHT22;697;51.114;6.542;2023-12-20T14:08:34;8.20;99.90
1405;DHT22;697;51.114;6.542;2023-12-20T14:11:01;8.20;99.90
1405;DHT22;697;51.114;6.542;2023-12-20T14:13:28;8.30;99.90
1405;DHT22;697;51.114;6.542;2023-12-20T14:15:55;8.30;99.90
1405;DHT22;697;51.114;6.542;2023-12-20T14:18:22;8.30;99.90
1405;DHT22;697;51.114;6.542;2023-12-20T14:20:50;8.30;99.90
1405;DHT22;697;51.114;6.542;2023-12-20T14:23:17;8.30;99.90
1405;DHT22;697;51.114;6.542;2023-12-20T14:25:44;8.30;99.90
1405;DHT22;697;51.114;6.542;2023-12-20T14:28:10;8.40;99.90
1405;DHT22;697;51.114;6.542;2023-12-20T14:30:39;8.40;99.90
1405;DHT22;697;51.114;6.542;2023-12-20T14:33:06;8.50;99.90
1405;DHT22;697;51.114;6.542;2023-12-20T14:35:33;8.60;99.90
1405;DHT22;697;51.114;6.542;2023-12-20T14:38:02;8.60;99.90
1405;DHT22;697;51.114;6.542;2023-12-20T14:40:29;8.60;99.90
1405;DHT22;697;51.114;6.542;2023-12-20T14:42:56;8.60;99.90
1405;DHT22;697;51.114;6.542;2023-12-20T14:45:23;8.60;99.90
1405;DHT22;697;51.114;6.542;2023-12-20T14:47:50;8.60;99.90
1405;DHT22;697;51.114;6.542;2023-12-20T14:50:16;8.60;99.90
1405;DHT22;697;51.114;6.542;2023-12-20T14:52:44;8.60;99.90
1405;DHT22;697;51.114;6.542;2023-12-20T14:55:13;8.60;99.90
1405;DHT22;697;51.114;6.542;2023-12-20T14:57:39;8.60;99.90
1405;DHT22;697;51.114;6.542;2023-12-20T15:00:07;8.60;99.90
1405;DHT22;697;51.114;6.542;2023-12-20T15:02:34;8.50;99.90
1405;DHT22;697;51.114;6.542;2023-12-20T15:05:00;8.50;99.90
1405;DHT22;697;51.114;6.542;2023-12-20T15:07:27;8.50;99.90
1405;DHT22;697;51.114;6.542;2023-12-20T15:09:54;8.50;99.90
1405;DHT22;697;51.114;6.542;2023-12-20T15:12:23;8.50;99.90
1405;DHT22;697;51.114;6.542;2023-12-20T15:14:50;8.50;99.90
1405;DHT22;697;51.114;6.542;2023-12-20T15:17:17;8.50;99.90
1405;DHT22;697;51.114;6.542;2023-12-20T15:19:43;8.50;99.90
1405;DHT22;697;51.114;6.542;2023-12-20T15:22:10;8.50;99.90
1405;DHT22;697;51.114;6.542;2023-12-20T15:24:37;8.50;99.90
1405;DHT22;697;51.114;6.542;2023-12-20T15:27:06;8.50;99.90
1405;DHT22;697;51.114;6.542;2023-12-20T15:29:34;8.50;99.90
1405;DHT22;697;51.114;6.542;2023-12-20T15:32:01;8.40;99.90
1405;DHT22;697;51.114;6.542;2023-12-20T15:34:29;8.50;99.90
1405;DHT22;697;51.114;6.542;2023-12-20T15:36:56;8.40;99.90
1405;DHT22;697;51.114;6.542;2023-12-20T15:39:23;8.40;99.90
1405;DHT22;697;51.114;6.542;2023-12-20T15:41:50;8.40;99.90
1405;DHT22;697;51.114;6.542;2023-12-20T15:44:17;8.40;99.90
1405;DHT22;697;51.114;6.542;2023-12-20T15:46:45;8.50;99.90
1405;DHT22;697;51.114;6.542;2023-12-20T15:49:12;8.40;99.90
1405;DHT22;697;51.114;6.542;2023-12-20T15:51:41;8.40;99.90
1405;DHT22;697;51.114;6.542;2023-12-20T15:54:08;8.40;99.90
1405;DHT22;697;51.114;6.542;2023-12-20T15:56:35;8.40;99.90
1405;DHT22;697;51.114;6.542;2023-12-20T15:59:02;8.40;99.90
1405;DHT22;697;51.114;6.542;2023-12-20T16:01:29;8.40;99.90
1405;DHT22;697;51.114;6.542;2023-12-20T16:03:58;8.40;99.90
1405;DHT22;697;51.114;6.542;2023-12-20T16:06:28;8.40;99.90
1405;DHT22;697;51.114;6.542;2023-12-20T16:08:57;8.40;99.90
1405;DHT22;697;51.114;6.542;2023-12-20T16:11:24;8.40;99.90
1405;DHT22;697;51.114;6.542;2023-12-20T16:13:51;8.40;99.90
1405;DHT22;697;51.114;6.542;2023-12-20T16:16:18;8.50;99.90
1405;DHT22;697;51.114;6.542;2023-12-20T16:18:44;8.50;99.90
1405;DHT22;697;51.114;6.542;2023-12-20T16:21:12;8.50;99.90
1405;DHT22;697;51.114;6.542;2023-12-20T16:23:39;8.50;99.90
1405;DHT22;697;51.114;6.542;2023-12-20T16:26:06;8.50;99.90
1405;DHT22;697;51.114;6.542;2023-12-20T16:28:33;8.50;99.90
1405;DHT22;697;51.114;6.542;2023-12-20T16:31:00;8.50;99.90
1405;DHT22;697;51.114;6.542;2023-12-20T16:33:27;8.50;99.90
1405;DHT22;697;51.114;6.542;2023-12-20T16:35:55;8.50;99.90